Time;durP1;ratioP1;P1;durP2;ratioP2;P2;SDS_P1;SDS_P2;PMS_P1;PMS_P2;Temp;Humidity;BMP_temperature;BMP_pressure;BME280_temperature;BME280_humidity;BME280_pressure;Samples;Min_cycle;Max_cycle;Signal;HPM_P1;HPM_P2
2022/08/06 00:01:01;;;;;;;14.00;9.10;;;;;;;19.68;60.45;98567.94;88800;1274;24134;-74
2022/08/06 00:03:04;;;;;;;12.70;9.40;;;;;;;19.66;60.67;98567.25;88996;1273;23696;-73
2022/08/06 00:05:06;;;;;;;14.10;9.00;;;;;;;19.64;60.68;98566.67;88798;1273;98578;-73
2022/08/06 00:07:08;;;;;;;18.40;9.50;;;;;;;19.64;60.72;98565.30;88719;1274;24361;-73
2022/08/06 00:09:11;;;;;;;15.40;9.60;;;;;;;19.62;60.85;98562.77;88919;1274;25264;-73
2022/08/06 00:11:14;;;;;;;10.20;9.10;;;;;;;19.61;60.81;98566.48;88794;1274;98098;-72
2022/08/06 00:13:18;;;;;;;17.40;9.30;;;;;;;19.57;60.95;98567.63;88841;1274;24012;-73
2022/08/06 00:15:20;;;;;;;22.30;9.60;;;;;;;19.53;61.16;98571.02;88795;1274;25951;-74
2022/08/06 00:17:23;;;;;;;11.20;9.10;;;;;;;19.51;61.17;98572.30;88707;1274;100064;-73
2022/08/06 00:19:28;;;;;;;10.70;9.60;;;;;;;19.48;61.20;98572.22;88714;1275;22570;-72
2022/08/06 00:21:31;;;;;;;11.20;9.90;;;;;;;19.45;61.33;98571.65;88695;1271;22576;-73
2022/08/06 00:23:33;;;;;;;15.20;9.50;;;;;;;19.42;61.40;98576.41;88553;1274;99300;-74
2022/08/06 00:25:35;;;;;;;15.30;9.90;;;;;;;19.38;61.43;98574.39;88474;1274;22573;-73
2022/08/06 00:27:39;;;;;;;10.90;9.80;;;;;;;19.36;61.46;98575.51;88654;1271;22751;-72
2022/08/06 00:29:40;;;;;;;15.90;9.70;;;;;;;19.33;61.58;98574.09;88574;1271;99892;-72
2022/08/06 00:31:42;;;;;;;13.90;9.60;;;;;;;19.32;61.70;98577.45;88601;1271;22561;-73
2022/08/06 00:33:44;;;;;;;11.30;9.90;;;;;;;19.30;61.83;98579.61;88646;1271;22673;-73
2022/08/06 00:35:45;;;;;;;11.30;9.70;;;;;;;19.28;61.75;98581.42;88573;1271;99177;-74
2022/08/06 00:37:48;;;;;;;13.10;10.30;;;;;;;19.26;61.71;98576.17;88610;1271;22559;-73
2022/08/06 00:39:49;;;;;;;10.60;9.40;;;;;;;19.26;61.96;98578.70;88472;1274;22716;-74
2022/08/06 00:41:51;;;;;;;11.10;10.00;;;;;;;19.25;61.79;98577.36;88670;1271;99130;-74
2022/08/06 00:43:54;;;;;;;10.60;9.50;;;;;;;19.23;61.92;98580.34;88615;1271;22636;-72
2022/08/06 00:45:56;;;;;;;10.40;9.30;;;;;;;19.19;62.00;98582.33;88626;1271;24413;-72
2022/08/06 00:47:59;;;;;;;11.10;9.90;;;;;;;19.16;62.08;98580.80;88554;1274;98082;-74
2022/08/06 00:50:01;;;;;;;9.80;8.80;;;;;;;19.12;62.12;98577.59;88623;1271;22557;-75
2022/08/06 00:52:03;;;;;;;11.60;9.20;;;;;;;19.09;62.22;98577.91;88666;1271;22780;-72
2022/08/06 00:54:05;;;;;;;9.80;8.50;;;;;;;19.05;62.21;98578.25;88719;1271;99467;-74
2022/08/06 00:56:07;;;;;;;11.20;9.20;;;;;;;19.02;62.46;98574.79;88572;1274;22654;-72
2022/08/06 00:58:09;;;;;;;10.80;9.70;;;;;;;18.99;62.38;98576.80;88570;1271;22646;-72
2022/08/06 01:00:11;;;;;;;10.70;9.60;;;;;;;18.97;62.64;98576.34;88359;1274;99654;-72
2022/08/06 01:02:12;;;;;;;15.60;9.60;;;;;;;18.93;62.65;98575.89;88544;1271;22614;-73
2022/08/06 01:04:15;;;;;;;10.70;9.50;;;;;;;18.90;62.74;98573.34;88484;1274;22556;-73
2022/08/06 01:06:16;;;;;;;13.40;9.70;;;;;;;18.86;62.83;98578.63;88491;1271;100939;-72
2022/08/06 01:08:19;;;;;;;14.90;10.30;;;;;;;18.83;62.84;98576.99;88467;1274;22550;-73
2022/08/06 01:10:22;;;;;;;13.30;9.80;;;;;;;18.81;62.93;98576.93;88505;1274;25544;-73
2022/08/06 01:12:25;;;;;;;11.80;9.10;;;;;;;18.80;63.05;98579.58;88772;1271;99106;-73
2022/08/06 01:14:28;;;;;;;11.20;9.50;;;;;;;18.76;62.96;98580.12;89247;1274;24238;-73
2022/08/06 01:16:50;;;;;;;15.30;10.00;;;;;;;18.71;63.11;98574.95;89149;1271;23955;-72
2022/08/06 01:18:59;;;;;;;18.30;10.20;;;;;;;18.67;63.23;98578.55;88845;1271;24350;-74
2022/08/06 01:21:22;;;;;;;16.10;9.80;;;;;;;18.63;63.42;98574.07;88770;1271;24255;-72
2022/08/06 01:23:24;;;;;;;;;;;;;;;18.59;63.57;98578.04;88783;1274;98563;-72
2022/08/06 01:25:53;;;;;;;12.10;9.50;;;;;;;18.56;63.80;98576.33;88895;1271;22738;-73
2022/08/06 01:28:07;;;;;;;19.00;11.20;;;;;;;18.52;63.75;98575.42;88832;1274;22594;-72
2022/08/06 01:30:15;;;;;;;9.80;8.90;;;;;;;18.50;63.77;98578.06;88847;1274;22752;-74
2022/08/06 01:32:39;;;;;;;11.60;9.80;;;;;;;18.50;63.88;98574.85;89061;1271;23286;-72
2022/08/06 01:35:14;;;;;;;16.80;9.70;;;;;;;18.51;63.93;98577.06;88999;1274;22557;-74
2022/08/06 01:38:00;;;;;;;10.80;9.80;;;;;;;18.49;64.01;98574.21;88867;1274;23330;-73
2022/08/06 01:40:10;;;;;;;10.30;9.30;;;;;;;18.50;64.14;98570.42;88856;1274;22941;-73
2022/08/06 01:42:15;;;;;;;13.70;9.50;;;;;;;18.52;64.10;98571.66;88863;1273;99619;-72
2022/08/06 01:44:23;;;;;;;18.50;9.10;;;;;;;18.54;64.22;98573.98;89291;1274;24197;-73
2022/08/06 01:46:28;;;;;;;10.70;9.70;;;;;;;18.56;64.14;98572.55;88768;1274;23990;-72
2022/08/06 01:48:36;;;;;;;15.00;9.70;;;;;;;18.56;64.17;98570.77;87118;1274;2247567;-73
2022/08/06 01:50:48;;;;;;;11.70;9.40;;;;;;;18.56;64.18;98572.73;88867;1271;25393;-73
2022/08/06 01:52:51;;;;;;;;;;;;;;;18.54;64.32;98571.30;88985;1274;99258;-73
2022/08/06 01:54:58;;;;;;;16.50;9.30;;;;;;;18.50;64.34;98571.81;88998;1271;23493;-73
2022/08/06 01:57:01;;;;;;;15.60;9.30;;;;;;;18.48;64.46;98569.12;88855;1271;24342;-77
2022/08/06 01:59:06;;;;;;;11.20;9.60;;;;;;;18.46;64.31;98569.38;88819;1271;99636;-73
2022/08/06 02:01:17;;;;;;;29.40;10.60;;;;;;;18.40;64.40;98571.09;88556;1276;22572;-72
2022/08/06 02:03:28;;;;;;;13.80;9.50;;;;;;;18.33;64.62;98580.96;89211;1274;22549;-72
2022/08/06 02:05:35;;;;;;;26.90;10.50;;;;;;;18.29;64.84;98613.02;88514;1271;99234;-74
2022/08/06 02:07:43;;;;;;;15.00;10.90;;;;;;;18.25;64.95;98597.86;88442;1274;22648;-75
2022/08/06 02:09:46;;;;;;;15.10;10.30;;;;;;;18.22;64.90;98606.30;88216;1274;25654;-73
2022/08/06 02:11:58;;;;;;;16.20;11.20;;;;;;;18.18;64.91;98603.24;88460;1271;99437;-72
2022/08/06 02:14:01;;;;;;;18.80;11.90;;;;;;;18.14;65.27;98603.05;88267;1274;22715;-74
2022/08/06 02:16:07;;;;;;;16.10;10.00;;;;;;;18.13;65.21;98596.92;88257;1274;22547;-72
2022/08/06 02:18:10;;;;;;;17.40;11.80;;;;;;;18.13;65.43;98601.33;88998;1271;100815;-72
2022/08/06 02:20:16;;;;;;;16.20;11.60;;;;;;;18.12;65.43;98600.31;88733;1271;22559;-73
2022/08/06 02:22:19;;;;;;;25.40;12.10;;;;;;;18.13;65.52;98598.30;88640;1271;25852;-73
2022/08/06 02:24:24;;;;;;;16.70;11.30;;;;;;;18.14;65.59;98593.98;88582;1271;99450;-72
2022/08/06 02:26:27;;;;;;;21.50;12.60;;;;;;;18.15;65.61;98593.15;88500;1274;22818;-73
2022/08/06 02:28:32;;;;;;;15.10;12.30;;;;;;;18.17;65.80;98590.69;88558;1274;22608;-73
2022/08/06 02:30:38;;;;;;;14.50;11.40;;;;;;;18.16;65.67;98585.98;88460;1271;99336;-71
2022/08/06 02:32:41;;;;;;;16.60;11.80;;;;;;;18.12;65.77;98603.93;88552;1271;26690;-72
2022/08/06 02:34:42;;;;;;;19.10;12.30;;;;;;;18.11;65.89;98612.95;88660;1271;22771;-73
2022/08/06 02:36:52;;;;;;;17.40;12.00;;;;;;;18.11;65.87;98614.16;88542;1271;99256;-72
2022/08/06 02:39:09;;;;;;;21.70;12.50;;;;;;;18.11;66.12;98617.73;88677;1271;22632;-72
2022/08/06 02:41:51;;;;;;;16.80;12.60;;;;;;;18.08;66.09;98624.33;88518;1271;99440;-72
2022/08/06 02:44:45;;;;;;;18.60;12.30;;;;;;;18.07;66.17;98624.60;88695;1271;22663;-72
2022/08/06 02:46:52;;;;;;;22.00;12.50;;;;;;;18.05;66.37;98627.09;88214;1280;22569;-72
2022/08/06 02:49:01;;;;;;;22.90;12.70;;;;;;;18.05;66.30;98621.98;88422;1279;22612;-73
2022/08/06 02:51:09;;;;;;;21.10;13.30;;;;;;;18.03;66.46;98626.04;88206;1280;22595;-73
2022/08/06 02:53:17;;;;;;;20.70;13.60;;;;;;;18.03;66.42;98629.06;88226;1277;100301;-73
2022/08/06 02:55:23;;;;;;;19.10;13.40;;;;;;;18.02;66.44;98633.38;88248;1277;22732;-72
2022/08/06 02:57:31;;;;;;;22.70;13.10;;;;;;;18.03;66.59;98636.65;88240;1277;22579;-73
2022/08/06 02:59:39;;;;;;;21.50;13.30;;;;;;;18.03;66.70;98634.33;88070;1279;100636;-73
2022/08/06 03:01:48;;;;;;;24.70;13.60;;;;;;;18.06;66.72;98637.02;88377;1279;22672;-71
2022/08/06 03:03:54;;;;;;;16.80;12.90;;;;;;;18.08;66.77;98638.80;88057;1279;22693;-72
2022/08/06 03:05:58;;;;;;;15.70;13.10;;;;;;;18.08;66.67;98642.67;88266;1279;100093;-72
2022/08/06 03:08:01;;;;;;;19.00;12.70;;;;;;;18.08;66.67;98642.13;88149;1280;22656;-73
2022/08/06 03:10:03;;;;;;;28.30;12.90;;;;;;;18.08;66.91;98645.73;88342;1279;23826;-72
2022/08/06 03:12:08;;;;;;;21.70;13.60;;;;;;;18.07;66.86;98644.59;88086;1280;99035;-73
2022/08/06 03:14:12;;;;;;;20.10;12.40;;;;;;;18.06;66.87;98643.23;88519;1277;24218;-74
2022/08/06 03:16:16;;;;;;;15.00;12.80;;;;;;;18.05;66.98;98642.23;88967;1277;22564;-74
2022/08/06 03:18:21;;;;;;;19.90;13.80;;;;;;;18.04;67.04;98645.63;88325;1279;99352;-73
2022/08/06 03:20:27;;;;;;;24.90;14.00;;;;;;;18.04;67.16;98647.80;88479;1279;24527;-71
2022/08/06 03:22:31;;;;;;;16.10;13.30;;;;;;;18.04;67.23;98655.06;88340;1274;22540;-73
2022/08/06 03:24:35;;;;;;;25.70;14.40;;;;;;;18.04;67.30;98661.10;88653;1271;98463;-73
2022/08/06 03:26:39;;;;;;;23.80;15.20;;;;;;;18.04;67.25;98668.05;88385;1271;22812;-74
2022/08/06 03:28:41;;;;;;;23.40;14.50;;;;;;;18.04;67.36;98673.36;88407;1271;23974;-72
2022/08/06 03:30:44;;;;;;;17.40;13.10;;;;;;;18.05;67.40;98678.51;88359;1271;99166;-73
2022/08/06 03:32:59;;;;;;;27.20;14.80;;;;;;;18.04;67.46;98681.38;89252;1274;25465;-75
2022/08/06 03:35:05;;;;;;;23.00;14.10;;;;;;;18.04;67.51;98687.08;88963;1271;99519;-72
2022/08/06 03:37:08;;;;;;;22.80;14.30;;;;;;;18.06;67.67;98699.73;89093;1271;22596;-73
2022/08/06 03:39:17;;;;;;;19.10;13.50;;;;;;;18.07;67.58;98698.58;89030;1274;23120;-73
2022/08/06 03:41:19;;;;;;;20.20;12.90;;;;;;;18.08;67.67;98691.92;88739;1274;99892;-73
2022/08/06 03:43:24;;;;;;;28.50;14.10;;;;;;;18.07;67.82;98692.52;89092;1274;22644;-73
2022/08/06 03:45:29;;;;;;;26.50;13.70;;;;;;;18.07;67.79;98698.38;88862;1274;22564;-72
2022/08/06 03:47:44;;;;;;;23.40;14.60;;;;;;;18.08;67.89;98695.66;88731;1274;99282;-73
2022/08/06 03:49:50;;;;;;;29.00;14.70;;;;;;;18.09;68.02;98697.14;88787;1274;22582;-70
2022/08/06 03:51:56;;;;;;;27.60;14.70;;;;;;;18.10;68.00;98703.66;88811;1271;23230;-72
2022/08/06 03:53:59;;;;;;;23.90;14.00;;;;;;;18.11;68.13;98711.55;88528;1272;99290;-73
2022/08/06 03:56:04;;;;;;;18.60;14.90;;;;;;;18.14;68.17;98712.41;88627;1271;24030;-72
2022/08/06 03:58:13;;;;;;;27.70;16.40;;;;;;;18.16;68.27;98721.30;88508;1274;25489;-73
2022/08/06 04:00:17;;;;;;;25.50;15.50;;;;;;;18.18;68.41;98723.77;89122;1271;99972;-72
2022/08/06 04:02:20;;;;;;;33.20;16.80;;;;;;;18.22;68.31;98725.64;88630;1271;22717;-73
2022/08/06 04:04:25;;;;;;;24.00;15.20;;;;;;;18.25;68.44;98727.46;88737;1271;24240;-72
2022/08/06 04:06:29;;;;;;;21.00;14.50;;;;;;;18.30;68.45;98737.43;88798;1273;98991;-73
2022/08/06 04:08:33;;;;;;;22.30;15.20;;;;;;;18.35;68.45;98735.59;88581;1271;25949;-71
2022/08/06 04:10:48;;;;;;;21.60;15.40;;;;;;;18.39;68.50;98734.36;88615;1271;22625;-73
2022/08/06 04:12:50;;;;;;;29.00;16.00;;;;;;;18.43;68.57;98737.91;88806;1271;22567;-73
2022/08/06 04:14:53;;;;;;;24.10;15.50;;;;;;;18.48;68.44;98735.90;88568;1271;23194;-71
2022/08/06 04:16:57;;;;;;;21.50;15.00;;;;;;;18.52;68.48;98741.60;88716;1274;99875;-72
2022/08/06 04:19:00;;;;;;;26.40;15.70;;;;;;;18.55;68.42;98739.77;89240;1271;23063;-73
2022/08/06 04:21:06;;;;;;;24.80;15.70;;;;;;;18.59;68.57;98744.95;88881;1274;22598;-73
2022/08/06 04:23:10;;;;;;;24.40;17.00;;;;;;;18.63;68.64;98752.61;88549;1277;99331;-73
2022/08/06 04:25:15;;;;;;;22.10;17.00;;;;;;;18.67;68.64;98753.17;88747;1276;22587;-73
2022/08/06 04:27:20;;;;;;;26.20;16.30;;;;;;;18.70;68.63;98748.05;88875;1271;22572;-73
2022/08/06 04:29:23;;;;;;;27.30;16.30;;;;;;;18.74;68.74;98752.89;88577;1274;99464;-74
2022/08/06 04:31:29;;;;;;;23.80;16.20;;;;;;;18.77;68.83;98756.77;88650;1271;22579;-72
2022/08/06 04:33:34;;;;;;;24.20;16.00;;;;;;;18.81;68.75;98755.02;88661;1271;22718;-71
2022/08/06 04:35:40;;;;;;;25.60;16.70;;;;;;;18.84;68.74;98756.71;88641;1271;99260;-72
2022/08/06 04:37:42;;;;;;;26.10;17.90;;;;;;;18.87;68.93;98760.16;88366;1274;27117;-73
2022/08/06 04:39:45;;;;;;;27.00;18.60;;;;;;;18.91;68.99;98763.46;88405;1271;22713;-72
2022/08/06 04:41:47;;;;;;;36.10;19.00;;;;;;;18.95;69.09;98765.58;88385;1274;101023;-72
2022/08/06 04:43:49;;;;;;;28.30;19.00;;;;;;;19.00;68.99;98767.24;88452;1271;24778;-70
2022/08/06 04:45:51;;;;;;;25.60;18.40;;;;;;;19.07;69.05;98772.23;88570;1271;22538;-73
2022/08/06 04:47:54;;;;;;;27.50;19.30;;;;;;;19.14;69.11;98777.31;88390;1274;99552;-71
2022/08/06 04:49:55;;;;;;;28.70;18.70;;;;;;;19.21;69.11;98782.71;88612;1271;24224;-72
2022/08/06 04:51:57;;;;;;;34.80;18.60;;;;;;;19.30;69.03;98780.35;88379;1274;25547;-72
2022/08/06 04:53:59;;;;;;;37.80;17.90;;;;;;;19.38;69.08;98783.05;88372;1271;99752;-72
2022/08/06 04:56:00;;;;;;;24.70;17.90;;;;;;;19.47;69.16;98791.69;88404;1271;22770;-71
2022/08/06 04:58:05;;;;;;;27.40;16.30;;;;;;;19.55;69.03;98797.60;88433;1271;25328;-72
2022/08/06 05:00:08;;;;;;;21.50;17.70;;;;;;;19.64;69.11;98799.31;88332;1274;99834;-72
2022/08/06 05:02:10;;;;;;;22.40;16.10;;;;;;;19.72;69.07;98801.96;88480;1271;22804;-72
2022/08/06 05:04:12;;;;;;;24.70;17.20;;;;;;;19.81;69.05;98809.40;88426;1271;24262;-71
2022/08/06 05:06:45;;;;;;;27.40;15.50;;;;;;;19.88;69.10;98810.38;88336;1271;99792;-71
2022/08/06 05:08:54;;;;;;;30.30;15.40;;;;;;;20.00;68.99;98818.39;88531;1271;22641;-72
2022/08/06 05:11:06;;;;;;;24.60;15.30;;;;;;;20.09;68.88;98823.68;88725;1271;99717;-72
2022/08/06 05:13:12;;;;;;;24.20;14.60;;;;;;;20.17;68.91;98828.27;88566;1274;23763;-72
2022/08/06 05:15:23;;;;;;;27.60;16.30;;;;;;;20.24;68.81;98838.54;88836;1271;27242;-72
2022/08/06 05:17:31;;;;;;;24.60;15.50;;;;;;;20.30;68.81;98845.30;88540;1271;100162;-72
2022/08/06 05:19:43;;;;;;;27.70;15.50;;;;;;;20.35;68.83;98850.62;88580;1274;22791;-72
2022/08/06 05:21:47;;;;;;;25.00;15.80;;;;;;;20.38;68.76;98851.71;88370;1277;25292;-71
2022/08/06 05:23:54;;;;;;;25.00;15.00;;;;;;;20.41;68.77;98859.30;88681;1274;99405;-73
2022/08/06 05:25:56;;;;;;;19.50;14.80;;;;;;;20.45;68.78;98867.70;88721;1271;22719;-72
2022/08/06 05:27:59;;;;;;;24.50;14.80;;;;;;;20.48;68.74;98875.64;88602;1274;22545;-72
2022/08/06 05:30:02;;;;;;;19.60;13.90;;;;;;;20.51;68.64;98878.71;88763;1271;99376;-72
2022/08/06 05:32:04;;;;;;;22.80;13.90;;;;;;;20.54;68.61;98886.66;88628;1271;23491;-71
2022/08/06 05:34:11;;;;;;;17.30;13.60;;;;;;;20.56;68.52;98891.10;88764;1271;22741;-72
2022/08/06 05:36:13;;;;;;;19.90;13.90;;;;;;;20.58;68.53;98893.27;88689;1271;99825;-72
2022/08/06 05:38:14;;;;;;;22.50;14.20;;;;;;;20.62;68.41;98899.95;88626;1274;25930;-72
2022/08/06 05:40:16;;;;;;;23.70;14.20;;;;;;;20.62;68.34;98897.02;88727;1274;24046;-72
2022/08/06 05:42:17;;;;;;;16.30;12.90;;;;;;;20.66;68.35;98901.50;88528;1274;98348;-72
2022/08/06 05:44:19;;;;;;;14.40;12.30;;;;;;;20.68;68.33;98900.30;88632;1271;22896;-74
2022/08/06 05:46:22;;;;;;;18.20;11.90;;;;;;;20.70;68.35;98912.44;88509;1271;25911;-73
2022/08/06 05:48:28;;;;;;;13.60;12.00;;;;;;;20.72;68.29;98917.27;88475;1271;101182;-73
2022/08/06 05:50:36;;;;;;;30.50;14.10;;;;;;;20.74;68.26;98927.42;88426;1273;22825;-71
2022/08/06 05:52:42;;;;;;;17.20;11.70;;;;;;;20.77;68.18;98935.93;88460;1274;22573;-71
2022/08/06 05:55:03;;;;;;;17.60;11.10;;;;;;;20.79;68.25;98935.86;88392;1271;99983;-72
2022/08/06 05:57:27;;;;;;;17.70;11.60;;;;;;;20.83;68.27;98945.35;88502;1271;25428;-72
2022/08/06 05:59:32;;;;;;;18.30;10.80;;;;;;;20.86;68.21;98950.46;88367;1271;99559;-72
2022/08/06 06:01:36;;;;;;;22.10;10.50;;;;;;;20.88;68.17;98957.70;88501;1271;22555;-72
2022/08/06 06:03:39;;;;;;;17.80;10.40;;;;;;;20.91;68.20;98962.30;88760;1274;24142;-72
2022/08/06 06:05:42;;;;;;;11.90;10.50;;;;;;;20.92;68.17;98968.06;88376;1271;99888;-72
2022/08/06 06:07:45;;;;;;;14.50;10.40;;;;;;;20.94;68.10;98969.42;88602;1271;25327;-72
2022/08/06 06:09:47;;;;;;;14.40;10.40;;;;;;;20.94;68.18;98971.30;88459;1271;23151;-72
2022/08/06 06:11:50;;;;;;;11.50;10.30;;;;;;;20.95;68.11;98971.78;88756;1271;99901;-72
2022/08/06 06:13:53;;;;;;;16.60;10.40;;;;;;;20.96;68.17;98974.75;88602;1274;23315;-73
2022/08/06 06:16:20;;;;;;;12.50;10.60;;;;;;;20.97;68.12;98984.11;88678;1273;23021;-72
2022/08/06 06:18:37;;;;;;;13.90;10.50;;;;;;;20.98;68.17;98988.48;88498;1274;99952;-72
2022/08/06 06:21:09;;;;;;;16.60;10.00;;;;;;;21.00;68.10;98990.27;88680;1274;22643;-73
2022/08/06 06:23:20;;;;;;;12.60;10.00;;;;;;;21.03;68.22;98989.59;88393;1271;99604;-72
2022/08/06 06:25:31;;;;;;;14.90;10.10;;;;;;;21.08;68.14;98987.22;88385;1271;25464;-73
2022/08/06 06:28:01;;;;;;;18.80;10.10;;;;;;;21.14;68.23;98990.41;88792;1272;22623;-72
2022/08/06 06:30:15;;;;;;;16.70;9.30;;;;;;;21.22;68.24;98994.43;89488;1271;99145;-72
2022/08/06 06:32:48;;;;;;;9.90;9.00;;;;;;;21.32;68.18;98996.86;88529;1274;23479;-73
2022/08/06 06:35:08;;;;;;;10.90;8.70;;;;;;;21.39;68.14;99001.30;88713;1271;99606;-73
2022/08/06 06:37:09;;;;;;;17.40;9.80;;;;;;;21.46;68.09;99003.53;88351;1274;22588;-72
2022/08/06 06:39:24;;;;;;;27.30;10.00;;;;;;;21.50;68.04;99007.28;88527;1271;22617;-72
2022/08/06 06:41:28;;;;;;;15.80;9.70;;;;;;;21.55;68.05;99013.48;88315;1274;99678;-71
2022/08/06 06:43:32;;;;;;;12.60;9.80;;;;;;;21.58;68.01;99015.31;88489;1271;24277;-74
2022/08/06 06:45:42;;;;;;;11.40;8.80;;;;;;;21.61;68.03;99019.17;88425;1271;23561;-73
2022/08/06 06:47:49;;;;;;;16.50;9.60;;;;;;;21.64;68.00;99022.12;88802;1274;99784;-73
2022/08/06 06:50:26;;;;;;;10.10;9.00;;;;;;;21.67;67.96;99020.38;88379;1274;25674;-71
2022/08/06 06:52:34;;;;;;;10.20;9.00;;;;;;;21.73;68.00;99027.16;88899;1271;25446;-72
2022/08/06 06:54:44;;;;;;;12.00;8.70;;;;;;;21.77;68.01;99028.02;88563;1271;99809;-72
2022/08/06 06:56:49;;;;;;;23.70;9.60;;;;;;;21.83;68.00;99031.02;88471;1271;22570;-72
2022/08/06 06:58:59;;;;;;;13.60;8.40;;;;;;;21.90;67.98;99028.75;88372;1274;99528;-72
2022/08/06 07:01:04;;;;;;;9.60;8.30;;;;;;;21.97;68.00;99032.29;88475;1271;22667;-71
2022/08/06 07:03:07;;;;;;;21.70;7.60;;;;;;;22.01;67.90;99034.79;88552;1274;23212;-71
2022/08/06 07:05:11;;;;;;;8.80;7.20;;;;;;;22.05;67.75;99038.15;88847;1271;99476;-72
2022/08/06 07:07:15;;;;;;;9.90;6.80;;;;;;;22.10;67.51;99042.14;88813;1271;23011;-72
2022/08/06 07:09:22;;;;;;;18.60;7.60;;;;;;;22.11;67.42;99037.77;88865;1272;22579;-73
2022/08/06 07:11:26;;;;;;;10.00;7.60;;;;;;;22.14;67.44;99049.98;88699;1275;98769;-72
2022/08/06 07:13:30;;;;;;;18.70;8.40;;;;;;;22.15;67.40;99052.74;88720;1277;25334;-74
2022/08/06 07:15:34;;;;;;;10.00;9.00;;;;;;;22.18;67.34;99059.14;88830;1271;25411;-72
2022/08/06 07:17:38;;;;;;;10.40;9.30;;;;;;;22.18;67.25;99060.70;88297;1277;99350;-72
2022/08/06 07:19:41;;;;;;;15.70;11.30;;;;;;;22.18;67.24;99060.48;88551;1271;22842;-71
2022/08/06 07:21:45;;;;;;;15.30;11.90;;;;;;;22.19;67.19;99065.05;88615;1271;22558;-73
2022/08/06 07:23:51;;;;;;;16.60;13.00;;;;;;;22.20;67.18;99065.46;88485;1271;99411;-72
2022/08/06 07:25:55;;;;;;;16.00;12.50;;;;;;;22.23;67.18;99069.87;88499;1275;23701;-72
2022/08/06 07:27:56;;;;;;;19.00;12.50;;;;;;;22.27;67.10;99068.92;88658;1271;25292;-72
2022/08/06 07:30:00;;;;;;;13.60;12.10;;;;;;;22.32;67.12;99070.48;88571;1271;99898;-70
2022/08/06 07:32:03;;;;;;;15.00;12.80;;;;;;;22.36;67.03;99076.57;88661;1271;22699;-72
2022/08/06 07:34:07;;;;;;;16.70;13.30;;;;;;;22.42;67.05;99080.30;88500;1272;23193;-72
2022/08/06 07:36:10;;;;;;;17.80;13.60;;;;;;;22.48;66.99;99087.25;88600;1271;100352;-73
2022/08/06 07:38:15;;;;;;;15.30;13.70;;;;;;;22.51;66.87;99092.16;88406;1275;22624;-72
2022/08/06 07:40:24;;;;;;;18.20;13.30;;;;;;;22.53;66.89;99093.74;88924;1271;22572;-71
2022/08/06 07:42:28;;;;;;;16.90;13.30;;;;;;;22.53;66.85;99097.88;88557;1270;99266;-72
2022/08/06 07:44:35;;;;;;;20.70;13.70;;;;;;;22.54;66.90;99102.73;88453;1274;22565;-73
2022/08/06 07:46:43;;;;;;;16.00;12.50;;;;;;;22.55;66.75;99102.52;88432;1274;22705;-73
2022/08/06 07:48:57;;;;;;;15.50;12.00;;;;;;;22.53;66.60;99106.13;88855;1271;99219;-72
2022/08/06 07:51:02;;;;;;;21.20;12.70;;;;;;;22.50;66.60;99113.03;88678;1272;22548;-73
2022/08/06 07:53:05;;;;;;;14.40;12.80;;;;;;;22.48;66.69;99113.89;88672;1275;99524;-72
2022/08/06 07:55:12;;;;;;;13.50;12.30;;;;;;;22.48;66.72;99116.58;88477;1275;22608;-73
2022/08/06 07:57:15;;;;;;;15.00;13.40;;;;;;;22.49;66.58;99121.15;88718;1271;22632;-73
2022/08/06 07:59:18;;;;;;;17.40;12.90;;;;;;;22.51;66.67;99123.46;88448;1271;99378;-72
2022/08/06 08:01:20;;;;;;;27.00;12.20;;;;;;;22.54;66.56;99123.53;88561;1271;25450;-71
2022/08/06 08:08:05;;;;;;;10.50;9.20;;;;;;;22.67;66.57;99132.88;88446;1274;25510;-72
2022/08/06 08:10:07;;;;;;;11.70;10.10;;;;;;;22.66;66.36;99136.08;88428;1274;23879;-71
2022/08/06 08:12:14;;;;;;;11.20;10.20;;;;;;;22.66;66.31;99139.50;88256;1274;100198;-72
2022/08/06 08:14:19;;;;;;;9.50;8.80;;;;;;;22.64;66.37;99137.66;88555;1274;25535;-72
2022/08/06 08:16:22;;;;;;;14.00;9.00;;;;;;;22.61;66.33;99144.02;88589;1274;24380;-72
2022/08/06 08:18:31;;;;;;;9.80;8.70;;;;;;;22.57;66.31;99147.25;88537;1271;98464;-72
2022/08/06 08:20:34;;;;;;;11.10;8.40;;;;;;;22.53;66.14;99150.02;90823;1274;23456;-72
2022/08/06 08:22:38;;;;;;;10.30;9.50;;;;;;;22.50;66.35;99147.08;90266;1271;24546;-71
2022/08/06 08:24:40;;;;;;;11.70;8.70;;;;;;;22.47;66.34;99150.86;88453;1271;99238;-72
2022/08/06 08:26:42;;;;;;;8.20;7.30;;;;;;;22.47;66.27;99154.27;88904;1271;22559;-71
2022/08/06 08:28:43;;;;;;;9.60;8.00;;;;;;;22.48;66.28;99151.69;88502;1271;25614;-72
2022/08/06 08:30:45;;;;;;;11.50;7.50;;;;;;;22.50;66.33;99151.52;88284;1274;99120;-71
2022/08/06 08:32:47;;;;;;;7.00;6.30;;;;;;;22.52;66.31;99151.83;88344;1271;23115;-75
2022/08/06 08:34:49;;;;;;;18.40;7.50;;;;;;;22.55;66.18;99149.75;88232;1274;26609;-72
2022/08/06 08:36:50;;;;;;;8.60;6.50;;;;;;;22.60;66.15;99149.47;88305;1272;99536;-72
2022/08/06 08:38:56;;;;;;;5.90;5.40;;;;;;;22.65;66.01;99156.02;88431;1271;24213;-72
2022/08/06 08:41:02;;;;;;;7.20;5.80;;;;;;;22.71;66.03;99149.83;88388;1271;99936;-72
2022/08/06 08:43:06;;;;;;;4.40;4.10;;;;;;;22.80;65.85;99147.79;88445;1271;22699;-72
2022/08/06 08:45:08;;;;;;;6.20;4.60;;;;;;;22.86;65.50;99156.13;88459;1271;24391;-71
2022/08/06 08:47:13;;;;;;;13.00;4.20;;;;;;;22.91;65.42;99153.45;88407;1271;99266;-71
2022/08/06 08:49:34;;;;;;;3.90;3.60;;;;;;;22.97;65.15;99155.44;88461;1274;22817;-72
2022/08/06 08:51:40;;;;;;;4.00;3.70;;;;;;;23.03;64.88;99160.29;88367;1274;25632;-72
2022/08/06 08:53:52;;;;;;;4.10;3.60;;;;;;;23.08;64.92;99161.19;88211;1274;99458;-73
2022/08/06 08:55:54;;;;;;;32.20;3.10;;;;;;;23.11;64.54;99157.84;88501;1271;22562;-72
2022/08/06 08:57:57;;;;;;;7.20;2.90;;;;;;;23.12;64.33;99164.23;88438;1274;27176;-74
2022/08/06 09:00:01;;;;;;;7.60;2.50;;;;;;;23.13;64.42;99164.48;88520;1271;99437;-73
2022/08/06 09:02:09;;;;;;;5.30;2.80;;;;;;;23.14;64.24;99167.42;88704;1271;22688;-72
2022/08/06 09:04:11;;;;;;;14.30;2.80;;;;;;;23.14;64.14;99173.36;88576;1271;24867;-71
2022/08/06 09:06:12;;;;;;;2.80;2.30;;;;;;;23.10;63.99;99174.07;88378;1275;100677;-71
2022/08/06 09:08:16;;;;;;;7.10;2.70;;;;;;;23.07;63.75;99178.53;88551;1271;22626;-73
2022/08/06 09:10:17;;;;;;;6.10;2.50;;;;;;;23.04;63.93;99181.65;88389;1275;25399;-72
2022/08/06 09:12:19;;;;;;;3.10;2.40;;;;;;;23.03;63.95;99182.29;88350;1271;99140;-71
2022/08/06 09:14:22;;;;;;;11.90;1.60;;;;;;;23.02;63.99;99181.86;88444;1274;22641;-74
2022/08/06 09:16:23;;;;;;;6.80;1.50;;;;;;;22.99;63.85;99183.38;88564;1271;23117;-74
2022/08/06 09:18:26;;;;;;;2.70;1.60;;;;;;;22.94;63.63;99182.55;88442;1271;99179;-73
2022/08/06 09:20:27;;;;;;;7.40;2.00;;;;;;;22.90;63.63;99184.23;88585;1271;22586;-73
2022/08/06 09:22:30;;;;;;;1.80;1.70;;;;;;;22.88;63.73;99184.58;88506;1271;22701;-73
2022/08/06 09:24:31;;;;;;;2.10;1.90;;;;;;;22.86;63.62;99189.98;88630;1271;100291;-72
2022/08/06 09:26:33;;;;;;;1.60;1.50;;;;;;;22.83;63.31;99194.92;88637;1271;25452;-73
2022/08/06 09:28:37;;;;;;;3.20;1.90;;;;;;;22.79;63.43;99197.83;88593;1271;22544;-73
2022/08/06 09:30:39;;;;;;;1.80;1.70;;;;;;;22.74;63.29;99201.74;89524;1271;97952;-74
2022/08/06 09:32:43;;;;;;;5.50;1.60;;;;;;;22.71;63.40;99207.64;88570;1274;22677;-72
2022/08/06 09:34:45;;;;;;;3.90;2.10;;;;;;;22.70;63.63;99211.78;88726;1271;22658;-72
2022/08/06 09:36:49;;;;;;;3.80;3.30;;;;;;;22.70;63.57;99214.13;88647;1271;99337;-74
2022/08/06 09:38:57;;;;;;;2.10;2.00;;;;;;;22.70;63.57;99212.52;90356;1271;22493;-73
2022/08/06 09:41:08;;;;;;;2.30;2.10;;;;;;;22.68;63.65;99209.96;88905;1271;99179;-74
2022/08/06 09:43:25;;;;;;;3.80;1.80;;;;;;;22.68;63.65;99212.55;88654;1271;25484;-73
2022/08/06 09:45:27;;;;;;;2.20;2.00;;;;;;;22.67;63.65;99218.52;88757;1271;22506;-73
2022/08/06 09:47:30;;;;;;;3.20;1.90;;;;;;;22.66;63.49;99217.55;88513;1274;99070;-73
2022/08/06 09:49:44;;;;;;;9.80;2.10;;;;;;;22.64;63.46;99218.10;88541;1274;23005;-72